الصفحة الرئيسية
METAR-TAF:

METAR-TAF

مطار :

مطار بكين العاصمة الدولي

بكين, جمهورية الصين الشعبية

دائرة عرض: 39-56N, خط طول: 116-17E, ارتفاع: 55 متر

مراقبة الطقس الحالي

تاريخ ووقت الإصدار 28 دقيقة قبل الساعة 11:00UTC
ريح 6 عقدة من الغرب
درجة الحرارة 16°درجة مئوية
الرطوبة 23%
ضغط 1026 hPa
الرؤية 10 كم أو أكثر
الغيوم لا تقل 1500 م ولا وجود لمزنة ركامية السحاب الأسود

METAR: ZBAA 101100Z 26003MPS CAVOK 16/M05 Q1026 NOSIG

زمن: 19:28 (11:28 UTC)

توقعات

تاريخ ووقت الإصدار 8ساعات و 26 دقيقة قبل الساعة 03:02UTC
التوقعات صالحة من10 الساعة 06 UTC إلى 11 الساعة 06 UTC
ريح 8 عقدة من الشمال
الرؤية: 6000 متر

TAF: ZBAA 100302Z 1006/1106 36004MPS 6000 NSC TX17/1007Z TN05/1021Z

أرصاد الطقس والتوقعات من أكثر من 4000 مطار (تقارير الطقس للمطار METAR والتنبؤ بالطقس بالمطارTAF).

المحطات المتاحة هي النقط الصفراء والحمراء على الخريطة.

حرك المؤشر فوق النقطة لمعرفة اسم المحطة.

ثم انقر لمعرفة أرصاد وتوقعات الطقس.

لتغيير الخارطة: اضغط على الأزرار الخضراء مع رمز الصليب الأسود للتكبير. على الزر الأخضر مع شرطة للتصغير، أو على الأسهم الخضراء للخرائط المجاورة.


METAR-TAF: